createdAt,value
2023-03-08T00:00:10.659Z,5.86
2023-03-08T00:01:16.478Z,5.85
2023-03-08T00:02:18.674Z,5.87
2023-03-08T00:03:20.476Z,5.90
2023-03-08T00:04:22.369Z,5.91
2023-03-08T00:05:24.421Z,5.92
2023-03-08T00:06:26.940Z,5.92
2023-03-08T00:07:28.769Z,5.95
2023-03-08T00:08:30.614Z,5.95
2023-03-08T00:09:32.454Z,5.93
2023-03-08T00:10:34.423Z,5.92
2023-03-08T00:11:36.341Z,5.93
2023-03-08T00:12:38.183Z,5.95
2023-03-08T00:13:40.271Z,5.97
2023-03-08T00:14:42.132Z,5.96
2023-03-08T00:15:44.738Z,5.94
2023-03-08T00:16:46.645Z,5.91
2023-03-08T00:17:48.716Z,5.88
2023-03-08T00:18:50.602Z,5.88
2023-03-08T00:19:52.581Z,5.90
2023-03-08T00:21:01.031Z,5.92
2023-03-08T00:22:02.883Z,5.95
2023-03-08T00:23:04.834Z,5.92
2023-03-08T00:24:06.815Z,5.90
2023-03-08T00:25:09.381Z,5.90
2023-03-08T00:26:12.039Z,5.89
2023-03-08T00:27:13.959Z,5.88
2023-03-08T00:28:15.826Z,5.87
2023-03-08T00:29:17.779Z,5.82
2023-03-08T00:30:20.131Z,5.77
2023-03-08T00:31:22.162Z,5.77
2023-03-08T00:32:25.738Z,5.76
2023-03-08T00:33:28.298Z,5.76
2023-03-08T00:34:30.145Z,5.77
2023-03-08T00:35:32.080Z,5.80
2023-03-08T00:36:33.916Z,5.83
2023-03-08T00:37:35.867Z,5.81
2023-03-08T00:38:37.775Z,5.81
2023-03-08T00:39:40.036Z,5.75
2023-03-08T00:40:41.915Z,5.75
2023-03-08T00:41:43.901Z,5.66
2023-03-08T00:42:45.891Z,5.60
2023-03-08T00:43:47.965Z,5.60
2023-03-08T00:44:49.806Z,5.61
2023-03-08T00:45:53.174Z,5.60
2023-03-08T00:46:55.704Z,5.61
2023-03-08T00:47:57.728Z,5.66
2023-03-08T00:49:00.184Z,5.67
2023-03-08T00:50:02.061Z,5.67
2023-03-08T00:51:04.192Z,5.67
2023-03-08T00:52:06.397Z,5.71
2023-03-08T00:53:08.908Z,5.71
2023-03-08T00:54:10.787Z,5.69
2023-03-08T00:55:12.598Z,5.69
2023-03-08T00:56:14.948Z,5.69
2023-03-08T00:57:16.847Z,5.70
2023-03-08T00:58:19.209Z,5.72
2023-03-08T00:59:21.056Z,5.75
2023-03-08T01:00:23.060Z,5.70
2023-03-08T01:01:24.984Z,5.61
2023-03-08T01:02:26.796Z,5.58
2023-03-08T01:03:28.705Z,5.56
2023-03-08T01:04:32.907Z,5.51
2023-03-08T01:05:35.380Z,5.52
2023-03-08T01:06:37.191Z,5.56
2023-03-08T01:07:39.132Z,5.60
2023-03-08T01:08:42.726Z,5.59
2023-03-08T01:09:44.614Z,5.63
2023-03-08T01:10:50.131Z,5.65
2023-03-08T01:11:51.971Z,5.66
2023-03-08T01:12:56.179Z,5.70
2023-03-08T01:13:57.970Z,5.72
2023-03-08T01:14:59.760Z,5.74
2023-03-08T01:16:02.105Z,5.75
2023-03-08T01:17:04.042Z,5.77
2023-03-08T01:18:06.547Z,5.80
2023-03-08T01:19:08.350Z,5.76
2023-03-08T01:20:10.566Z,5.72
2023-03-08T01:21:12.744Z,5.72
2023-03-08T01:22:14.557Z,5.75
2023-03-08T01:23:16.501Z,5.76
2023-03-08T01:24:18.390Z,5.74
2023-03-08T01:25:20.426Z,5.63
2023-03-08T01:26:23.505Z,5.39
2023-03-08T01:27:25.385Z,5.31
2023-03-08T01:28:27.417Z,5.33
2023-03-08T01:29:29.338Z,5.34
2023-03-08T01:30:31.348Z,5.37
2023-03-08T01:31:33.229Z,5.41
2023-03-08T01:32:35.098Z,5.43
2023-03-08T01:33:37.035Z,5.43
2023-03-08T01:34:39.380Z,5.33
2023-03-08T01:35:41.330Z,5.32
2023-03-08T01:36:43.214Z,5.31
2023-03-08T01:37:45.090Z,5.32
2023-03-08T01:38:47.682Z,5.35
2023-03-08T01:39:49.528Z,5.40
2023-03-08T01:40:55.841Z,5.25
2023-03-08T01:41:57.800Z,5.16
2023-03-08T01:42:59.675Z,5.14
2023-03-08T01:44:01.476Z,5.14
2023-03-08T01:45:23.233Z,5.12
2023-03-08T01:46:27.094Z,4.99
2023-03-08T01:47:33.061Z,4.95
2023-03-08T01:48:44.699Z,4.90
2023-03-08T01:49:49.016Z,4.90
2023-03-08T01:50:51.073Z,4.85
2023-03-08T01:52:00.681Z,4.74
2023-03-08T01:53:02.640Z,4.64
2023-03-08T01:54:09.952Z,4.68
2023-03-08T01:55:13.274Z,4.63
2023-03-08T01:56:16.846Z,4.52
2023-03-08T01:57:30.413Z,4.36
2023-03-08T01:58:32.326Z,4.40
2023-03-08T01:59:34.916Z,4.51
2023-03-08T02:00:38.387Z,4.57
2023-03-08T02:01:40.807Z,4.58
2023-03-08T02:02:45.421Z,4.55
2023-03-08T02:03:48.309Z,4.59
2023-03-08T02:04:50.148Z,4.56
2023-03-08T02:05:51.940Z,4.58
2023-03-08T02:06:53.793Z,4.67
2023-03-08T02:07:55.694Z,4.77
2023-03-08T02:08:58.141Z,4.85
2023-03-08T02:10:00.013Z,4.90
2023-03-08T02:11:02.315Z,4.93
2023-03-08T02:12:07.357Z,4.97
2023-03-08T02:13:09.947Z,5.03
2023-03-08T02:14:11.856Z,5.05
2023-03-08T02:15:15.729Z,5.06
2023-03-08T02:16:18.356Z,5.07
2023-03-08T02:17:20.248Z,5.04
2023-03-08T02:18:22.469Z,4.98
2023-03-08T02:19:29.646Z,5.00
2023-03-08T02:20:34.686Z,5.06
2023-03-08T02:21:36.607Z,5.11
2023-03-08T02:22:39.408Z,5.13
2023-03-08T02:23:41.388Z,5.11
2023-03-08T02:24:43.596Z,5.12
2023-03-08T02:25:51.745Z,5.14
2023-03-08T02:26:58.470Z,5.07
2023-03-08T02:28:00.911Z,5.01
2023-03-08T02:29:02.802Z,4.97
2023-03-08T02:30:04.836Z,4.98
2023-03-08T02:31:06.789Z,4.97
2023-03-08T02:32:09.192Z,4.94
2023-03-08T02:33:11.250Z,4.92
2023-03-08T02:34:13.198Z,4.90
2023-03-08T02:35:15.094Z,4.89
2023-03-08T02:36:16.997Z,4.86
2023-03-08T02:37:18.936Z,4.86
2023-03-08T02:38:21.491Z,4.79
2023-03-08T02:39:23.370Z,4.74
2023-03-08T02:40:25.634Z,4.67
2023-03-08T02:41:27.571Z,4.62
2023-03-08T02:42:29.524Z,4.62
2023-03-08T02:43:31.489Z,4.65
2023-03-08T02:44:33.358Z,4.66
2023-03-08T02:45:35.447Z,4.66
2023-03-08T02:46:37.360Z,4.65
2023-03-08T02:47:39.215Z,4.61
2023-03-08T02:48:41.067Z,4.61
2023-03-08T02:49:42.973Z,4.66
2023-03-08T02:50:44.921Z,4.70
2023-03-08T02:51:46.793Z,4.67
2023-03-08T02:52:48.777Z,4.70
2023-03-08T02:53:50.574Z,4.71
2023-03-08T02:54:54.103Z,4.73
2023-03-08T02:55:56.092Z,4.79
2023-03-08T02:56:58.009Z,4.83
2023-03-08T02:57:59.879Z,4.84
2023-03-08T02:59:01.733Z,4.77
2023-03-08T03:00:04.361Z,4.69
2023-03-08T03:01:11.116Z,4.70
2023-03-08T03:02:13.245Z,4.71
2023-03-08T03:03:15.118Z,4.70
2023-03-08T03:04:17.007Z,4.77
2023-03-08T03:05:19.031Z,4.86
2023-03-08T03:06:20.986Z,4.91
2023-03-08T03:07:23.017Z,4.96
2023-03-08T03:08:24.945Z,4.98
2023-03-08T03:09:26.936Z,4.92
2023-03-08T03:10:28.875Z,4.84
2023-03-08T03:11:30.737Z,4.84
2023-03-08T03:12:32.744Z,4.85
2023-03-08T03:13:34.606Z,4.85
2023-03-08T03:14:36.481Z,4.79
2023-03-08T03:15:39.760Z,4.73
2023-03-08T03:16:41.612Z,4.75
2023-03-08T03:17:43.476Z,4.74
2023-03-08T03:18:45.329Z,4.70
2023-03-08T03:19:47.240Z,4.67
2023-03-08T03:20:49.092Z,4.71
2023-03-08T03:21:51.103Z,4.66
2023-03-08T03:22:53.066Z,4.61
2023-03-08T03:23:55.333Z,4.57
2023-03-08T03:24:57.223Z,4.54
2023-03-08T03:26:04.963Z,4.54
2023-03-08T03:27:06.879Z,4.63
2023-03-08T03:28:08.737Z,4.72
2023-03-08T03:29:10.666Z,4.79
2023-03-08T03:30:13.340Z,4.87
2023-03-08T03:31:16.683Z,4.93
2023-03-08T03:32:18.703Z,4.97
2023-03-08T03:33:20.617Z,5.03
2023-03-08T03:34:22.624Z,5.08
2023-03-08T03:35:24.500Z,5.11
2023-03-08T03:36:26.410Z,5.12
2023-03-08T03:37:28.325Z,5.14
2023-03-08T03:38:30.365Z,5.17
2023-03-08T03:39:35.725Z,5.13
2023-03-08T03:40:37.593Z,5.06
2023-03-08T03:41:39.394Z,5.05
2023-03-08T03:42:41.227Z,5.07
2023-03-08T03:43:43.231Z,5.10
2023-03-08T03:44:45.090Z,5.14
2023-03-08T03:45:55.076Z,5.17
2023-03-08T03:46:57.165Z,5.20
2023-03-08T03:47:59.048Z,5.17
2023-03-08T03:49:01.001Z,5.14
2023-03-08T03:50:02.924Z,5.12
2023-03-08T03:51:06.363Z,5.15
2023-03-08T03:52:08.164Z,5.19
2023-03-08T03:53:10.088Z,5.18
2023-03-08T03:54:12.003Z,5.16
2023-03-08T03:55:13.790Z,5.17
2023-03-08T03:56:17.133Z,5.20
2023-03-08T03:57:20.182Z,5.22
2023-03-08T03:58:22.157Z,5.18
2023-03-08T03:59:26.554Z,5.19
2023-03-08T04:00:28.763Z,5.20
2023-03-08T04:01:31.623Z,5.21
2023-03-08T04:02:33.726Z,5.20
2023-03-08T04:03:35.686Z,5.20
2023-03-08T04:04:37.717Z,5.19
2023-03-08T04:05:40.386Z,5.10
2023-03-08T04:06:42.301Z,5.10
2023-03-08T04:07:44.263Z,5.08
2023-03-08T04:08:46.683Z,5.05
2023-03-08T04:09:48.846Z,5.06
2023-03-08T04:10:50.777Z,5.04
2023-03-08T04:11:52.664Z,5.00
2023-03-08T04:12:54.461Z,4.91
2023-03-08T04:13:56.342Z,4.93
2023-03-08T04:14:58.185Z,4.93
2023-03-08T04:16:00.192Z,4.96
2023-03-08T04:17:02.114Z,4.94
2023-03-08T04:18:04.025Z,4.90
2023-03-08T04:19:07.459Z,4.84
2023-03-08T04:20:09.594Z,4.81
2023-03-08T04:21:11.932Z,4.85
2023-03-08T04:22:13.790Z,4.89
2023-03-08T04:23:15.722Z,4.95
2023-03-08T04:24:17.615Z,4.99
2023-03-08T04:25:19.557Z,5.04
2023-03-08T04:26:21.620Z,5.06
2023-03-08T04:27:23.594Z,5.02
2023-03-08T04:28:25.467Z,5.01
2023-03-08T04:29:27.369Z,5.00
2023-03-08T04:30:30.935Z,4.99
2023-03-08T04:31:35.246Z,5.02
2023-03-08T04:32:37.109Z,5.07
2023-03-08T04:33:38.930Z,5.09
2023-03-08T04:34:40.868Z,5.11
2023-03-08T04:35:42.892Z,5.12
2023-03-08T04:36:44.787Z,5.15
2023-03-08T04:37:49.373Z,5.17
2023-03-08T04:38:51.959Z,5.16
2023-03-08T04:39:53.814Z,5.19
2023-03-08T04:41:13.790Z,5.20
2023-03-08T04:42:15.673Z,5.19
2023-03-08T04:43:17.502Z,5.20
2023-03-08T04:44:19.426Z,5.16
2023-03-08T04:45:21.356Z,5.03
2023-03-08T04:46:25.449Z,4.99
2023-03-08T04:47:27.330Z,5.00
2023-03-08T04:48:29.357Z,5.00
2023-03-08T04:49:31.190Z,5.02
2023-03-08T04:50:33.126Z,5.01
2023-03-08T04:51:35.077Z,5.00
2023-03-08T04:52:37.004Z,5.00
2023-03-08T04:53:39.598Z,5.02
2023-03-08T04:54:41.555Z,5.04
2023-03-08T04:55:43.493Z,5.07
2023-03-08T04:56:45.446Z,5.09
2023-03-08T04:57:47.249Z,5.12
2023-03-08T04:58:49.559Z,5.18
2023-03-08T04:59:51.832Z,5.18
2023-03-08T05:00:53.743Z,5.15
2023-03-08T05:01:55.689Z,5.14
2023-03-08T05:02:57.554Z,5.12
2023-03-08T05:03:59.901Z,5.06
2023-03-08T05:05:02.044Z,5.03
2023-03-08T05:06:04.099Z,5.00
2023-03-08T05:07:06.001Z,5.04
2023-03-08T05:08:07.802Z,5.02
2023-03-08T05:09:09.765Z,4.96
2023-03-08T05:10:11.729Z,4.88
2023-03-08T05:11:17.988Z,4.86
2023-03-08T05:12:19.855Z,4.80
2023-03-08T05:13:21.734Z,4.76
2023-03-08T05:14:23.553Z,4.78
2023-03-08T05:15:25.529Z,4.84
2023-03-08T05:16:27.563Z,4.85
2023-03-08T05:17:29.424Z,4.77
2023-03-08T05:18:31.542Z,4.82
2023-03-08T05:19:33.392Z,4.80
2023-03-08T05:20:35.341Z,4.83
2023-03-08T05:21:37.195Z,4.86
2023-03-08T05:22:55.019Z,4.81
2023-03-08T05:24:00.360Z,4.71
2023-03-08T05:25:02.195Z,4.69
2023-03-08T05:26:05.507Z,4.66
2023-03-08T05:27:07.961Z,4.66
2023-03-08T05:28:09.768Z,4.70
2023-03-08T05:29:11.810Z,4.73
2023-03-08T05:30:13.838Z,4.78
2023-03-08T05:31:16.931Z,4.76
2023-03-08T05:32:18.910Z,4.80
2023-03-08T05:33:20.832Z,4.86
2023-03-08T05:34:22.754Z,4.88
2023-03-08T05:35:24.659Z,4.88
2023-03-08T05:36:26.647Z,4.87
2023-03-08T05:37:28.592Z,4.89
2023-03-08T05:38:30.379Z,4.90
2023-03-08T05:39:32.330Z,4.91
2023-03-08T05:40:34.180Z,4.88
2023-03-08T05:41:36.096Z,4.87
2023-03-08T05:42:38.073Z,4.80
2023-03-08T05:43:40.220Z,4.71
2023-03-08T05:44:42.108Z,4.68
2023-03-08T05:45:44.823Z,4.69
2023-03-08T05:46:46.702Z,4.73
2023-03-08T05:47:48.538Z,4.74
2023-03-08T05:48:50.431Z,4.79
2023-03-08T05:49:52.597Z,4.82
2023-03-08T05:50:54.640Z,4.85
2023-03-08T05:51:56.537Z,4.84
2023-03-08T05:52:58.423Z,4.85
2023-03-08T05:54:00.242Z,4.84
2023-03-08T05:55:02.158Z,4.82
2023-03-08T05:56:12.923Z,4.83
2023-03-08T05:57:14.754Z,4.88
2023-03-08T05:58:16.739Z,4.93
2023-03-08T05:59:18.867Z,4.94
2023-03-08T06:00:20.940Z,4.91
2023-03-08T06:01:24.339Z,4.85
2023-03-08T06:02:26.233Z,4.80
2023-03-08T06:03:28.162Z,4.80
2023-03-08T06:04:30.018Z,4.82
2023-03-08T06:05:32.765Z,4.83
2023-03-08T06:06:35.022Z,4.80
2023-03-08T06:07:36.983Z,4.79
2023-03-08T06:08:39.369Z,4.75
2023-03-08T06:09:41.313Z,4.74
2023-03-08T06:10:43.257Z,4.74
2023-03-08T06:11:45.148Z,4.73
2023-03-08T06:12:47.067Z,4.73
2023-03-08T06:13:48.905Z,4.71
2023-03-08T06:14:50.887Z,4.68
2023-03-08T06:15:59.007Z,4.64
2023-03-08T06:17:01.017Z,4.66
2023-03-08T06:18:03.055Z,4.68
2023-03-08T06:19:04.831Z,4.70
2023-03-08T06:20:07.289Z,4.67
2023-03-08T06:21:11.607Z,4.66
2023-03-08T06:22:15.744Z,4.71
2023-03-08T06:23:17.475Z,4.71
2023-03-08T06:24:19.296Z,4.71
2023-03-08T06:25:21.281Z,4.71
2023-03-08T06:26:23.292Z,4.61
2023-03-08T06:27:25.351Z,4.58
2023-03-08T06:28:28.093Z,4.59
2023-03-08T06:29:30.153Z,4.63
2023-03-08T06:30:32.061Z,4.57
2023-03-08T06:31:34.104Z,4.57
2023-03-08T06:32:37.827Z,4.55
2023-03-08T06:33:39.817Z,4.55
2023-03-08T06:34:41.817Z,4.57
2023-03-08T06:35:43.865Z,4.54
2023-03-08T06:36:45.827Z,4.52
2023-03-08T06:37:47.764Z,4.54
2023-03-08T06:38:50.096Z,4.55
2023-03-08T06:39:51.947Z,4.54
2023-03-08T06:40:53.886Z,4.53
2023-03-08T06:41:55.802Z,4.54
2023-03-08T06:42:57.640Z,4.50
2023-03-08T06:43:59.564Z,4.49
2023-03-08T06:45:01.466Z,4.57
2023-03-08T06:46:04.320Z,4.59
2023-03-08T06:47:06.228Z,4.57
2023-03-08T06:48:08.280Z,4.57
2023-03-08T06:49:10.072Z,4.52
2023-03-08T06:50:12.122Z,4.51
2023-03-08T06:51:14.135Z,4.46
2023-03-08T06:52:16.025Z,4.44
2023-03-08T06:53:17.890Z,4.44
2023-03-08T06:54:20.348Z,4.43
2023-03-08T06:55:22.691Z,4.46
2023-03-08T06:56:24.724Z,4.47
2023-03-08T06:57:26.609Z,4.50
2023-03-08T06:58:28.564Z,4.51
2023-03-08T06:59:30.469Z,4.51
2023-03-08T07:00:32.982Z,4.54
2023-03-08T07:01:34.843Z,4.54
2023-03-08T07:02:36.931Z,4.59
2023-03-08T07:03:38.943Z,4.59
2023-03-08T07:04:40.848Z,4.61
2023-03-08T07:05:42.715Z,4.63
2023-03-08T07:06:44.995Z,4.66
2023-03-08T07:07:46.988Z,4.67
2023-03-08T07:08:48.880Z,4.68
2023-03-08T07:09:50.859Z,4.73
2023-03-08T07:10:53.107Z,4.73
2023-03-08T07:11:55.045Z,4.78
2023-03-08T07:12:56.999Z,4.78
2023-03-08T07:13:59.628Z,4.80
2023-03-08T07:15:01.566Z,4.85
2023-03-08T07:16:07.770Z,4.89
2023-03-08T07:17:09.609Z,4.93
2023-03-08T07:18:11.587Z,4.97
2023-03-08T07:19:13.354Z,4.99
2023-03-08T07:20:22.491Z,5.00
2023-03-08T07:21:24.902Z,4.97
2023-03-08T07:22:26.788Z,4.96
2023-03-08T07:23:28.691Z,4.95
2023-03-08T07:24:30.582Z,5.00
2023-03-08T07:25:32.524Z,4.99
2023-03-08T07:26:34.384Z,4.99
2023-03-08T07:27:36.213Z,5.06
2023-03-08T07:28:38.162Z,5.09
2023-03-08T07:29:40.265Z,5.12
2023-03-08T07:30:50.383Z,5.14
2023-03-08T07:31:53.806Z,5.14
2023-03-08T07:32:55.771Z,5.16
2023-03-08T07:33:58.651Z,5.19
2023-03-08T07:35:00.522Z,5.21
2023-03-08T07:36:02.685Z,5.20
2023-03-08T07:37:04.638Z,5.20
2023-03-08T07:38:06.527Z,5.19
2023-03-08T07:39:08.446Z,5.24
2023-03-08T07:40:11.310Z,5.28
2023-03-08T07:41:13.554Z,5.33
2023-03-08T07:42:15.381Z,5.36
2023-03-08T07:43:17.236Z,5.39
2023-03-08T07:44:19.157Z,5.41
2023-03-08T07:45:20.994Z,5.46
2023-03-08T07:46:23.202Z,5.52
2023-03-08T07:47:25.112Z,5.56
2023-03-08T07:48:27.136Z,5.58
2023-03-08T07:49:29.042Z,5.59
2023-03-08T07:50:30.913Z,5.64
2023-03-08T07:51:32.877Z,5.63
2023-03-08T07:52:34.826Z,5.68
2023-03-08T07:53:37.400Z,5.66
2023-03-08T07:54:39.427Z,5.68
2023-03-08T07:55:41.302Z,5.70
2023-03-08T07:56:43.468Z,5.72
2023-03-08T07:57:45.321Z,5.81
2023-03-08T07:58:47.302Z,5.89
2023-03-08T07:59:52.311Z,5.96
2023-03-08T08:00:55.434Z,6.02
2023-03-08T08:01:57.398Z,6.06
2023-03-08T08:02:59.295Z,6.04
2023-03-08T08:04:01.259Z,6.00
2023-03-08T08:05:05.072Z,6.05
2023-03-08T08:06:07.445Z,6.06
2023-03-08T08:07:15.338Z,6.08
2023-03-08T08:08:17.281Z,6.18
2023-03-08T08:09:19.179Z,6.25
2023-03-08T08:10:21.015Z,6.31
2023-03-08T08:11:22.991Z,6.37
2023-03-08T08:12:24.972Z,6.47
2023-03-08T08:13:26.901Z,6.49
2023-03-08T08:14:28.811Z,6.53
2023-03-08T08:15:31.230Z,6.60
2023-03-08T08:16:33.248Z,6.64
2023-03-08T08:17:35.373Z,6.71
2023-03-08T08:18:37.258Z,6.80
2023-03-08T08:19:39.085Z,6.89
2023-03-08T08:20:40.977Z,6.93
2023-03-08T08:21:42.810Z,6.96
2023-03-08T08:22:44.839Z,6.99
2023-03-08T08:23:47.013Z,7.01
2023-03-08T08:24:48.962Z,7.03
2023-03-08T08:25:50.858Z,7.01
2023-03-08T08:26:52.752Z,7.06
2023-03-08T08:27:54.686Z,7.09
2023-03-08T08:28:56.551Z,7.16
2023-03-08T08:29:59.644Z,7.19
2023-03-08T08:31:03.000Z,7.22
2023-03-08T08:32:05.234Z,7.24
2023-03-08T08:33:07.200Z,7.27
2023-03-08T08:34:09.091Z,7.32
2023-03-08T08:35:11.148Z,7.33
2023-03-08T08:36:14.216Z,7.33
2023-03-08T08:37:16.117Z,7.29
2023-03-08T08:38:18.052Z,7.26
2023-03-08T08:39:19.910Z,7.25
2023-03-08T08:40:21.909Z,7.22
2023-03-08T08:41:24.575Z,7.17
2023-03-08T08:42:26.808Z,7.19
2023-03-08T08:43:29.573Z,7.19
2023-03-08T08:44:31.477Z,7.19
2023-03-08T08:45:33.426Z,7.21
2023-03-08T08:46:35.510Z,7.23
2023-03-08T08:47:37.390Z,7.27
2023-03-08T08:48:40.149Z,7.31
2023-03-08T08:49:42.029Z,7.34
2023-03-08T08:50:44.027Z,7.34
2023-03-08T08:51:45.841Z,7.33
2023-03-08T08:52:47.777Z,7.32
2023-03-08T08:53:49.929Z,7.35
2023-03-08T08:54:52.871Z,7.40
2023-03-08T08:55:54.724Z,7.46
2023-03-08T08:56:56.639Z,7.51
2023-03-08T08:57:58.445Z,7.57
2023-03-08T08:59:01.312Z,7.63
2023-03-08T09:00:05.853Z,7.68
2023-03-08T09:01:19.312Z,7.71
2023-03-08T09:02:21.235Z,7.74
2023-03-08T09:03:25.097Z,7.81
2023-03-08T09:04:28.314Z,7.89
2023-03-08T09:05:30.885Z,7.92
2023-03-08T09:06:33.399Z,7.90
2023-03-08T09:07:36.427Z,7.92
2023-03-08T09:08:39.984Z,8.00
2023-03-08T09:09:41.851Z,8.06
2023-03-08T09:10:43.694Z,8.12
2023-03-08T09:11:54.762Z,8.18
2023-03-08T09:12:59.423Z,8.19
2023-03-08T09:14:02.838Z,8.25
2023-03-08T09:15:06.385Z,8.28
2023-03-08T09:16:18.884Z,8.36
2023-03-08T09:17:20.809Z,8.45
2023-03-08T09:18:22.708Z,8.52
2023-03-08T09:19:24.639Z,8.54
2023-03-08T09:20:26.566Z,8.53
2023-03-08T09:21:29.200Z,8.52
2023-03-08T09:22:31.201Z,8.49
2023-03-08T09:23:33.153Z,8.50
2023-03-08T09:24:35.040Z,8.55
2023-03-08T09:25:36.993Z,8.58
2023-03-08T09:26:39.221Z,8.61
2023-03-08T09:27:41.954Z,8.65
2023-03-08T09:28:44.400Z,8.66
2023-03-08T09:29:46.467Z,8.62
2023-03-08T09:30:48.496Z,8.55
2023-03-08T09:31:50.536Z,8.52
2023-03-08T09:32:52.645Z,8.54
2023-03-08T09:33:54.515Z,8.60
2023-03-08T09:34:58.489Z,8.67
2023-03-08T09:36:01.763Z,8.73
2023-03-08T09:37:04.465Z,8.77
2023-03-08T09:38:06.472Z,8.80
2023-03-08T09:39:12.435Z,8.79
2023-03-08T09:40:27.413Z,8.80
2023-03-08T09:41:45.952Z,8.80
2023-03-08T09:42:49.570Z,8.80
2023-03-08T09:44:09.941Z,8.79
2023-03-08T09:45:23.812Z,8.81
2023-03-08T09:46:31.281Z,8.80
2023-03-08T09:47:42.131Z,8.76
2023-03-08T09:48:47.927Z,8.71
2023-03-08T09:49:52.554Z,8.68
2023-03-08T09:50:57.665Z,8.72
2023-03-08T09:52:16.315Z,8.76
2023-03-08T09:53:18.191Z,8.82
2023-03-08T09:54:22.352Z,8.85
2023-03-08T09:55:35.399Z,8.87
2023-03-08T09:56:57.427Z,8.88
2023-03-08T09:58:05.874Z,8.89
2023-03-08T09:59:17.198Z,8.90
2023-03-08T10:00:24.306Z,8.96
2023-03-08T10:01:39.255Z,9.06
2023-03-08T10:02:48.077Z,9.14
2023-03-08T10:04:08.566Z,9.20
2023-03-08T10:05:22.342Z,9.32
2023-03-08T10:06:37.361Z,9.46
2023-03-08T10:07:54.350Z,9.57
2023-03-08T10:09:18.580Z,9.59
2023-03-08T10:10:23.269Z,9.74
2023-03-08T10:11:25.446Z,9.82
2023-03-08T10:12:30.885Z,9.81
2023-03-08T10:13:36.924Z,9.82
2023-03-08T10:14:58.842Z,9.86
2023-03-08T10:16:03.806Z,9.90
2023-03-08T10:17:17.995Z,9.94
2023-03-08T10:18:31.238Z,10.06
2023-03-08T10:19:42.587Z,10.12
2023-03-08T10:20:44.510Z,10.17
2023-03-08T10:21:47.363Z,10.19
2023-03-08T10:22:54.026Z,10.13
2023-03-08T10:23:59.265Z,10.07
2023-03-08T10:25:31.837Z,10.02
2023-03-08T10:26:33.852Z,9.88
2023-03-08T10:27:35.913Z,9.86
2023-03-08T10:28:38.235Z,9.87
2023-03-08T10:29:40.237Z,9.90
2023-03-08T10:30:46.877Z,9.92
2023-03-08T10:31:48.819Z,9.96
2023-03-08T10:32:52.035Z,9.98
2023-03-08T10:34:14.634Z,10.04
2023-03-08T10:35:17.099Z,10.15
2023-03-08T10:36:20.566Z,10.25
2023-03-08T10:37:24.228Z,10.35
2023-03-08T10:38:30.835Z,10.45
2023-03-08T10:39:32.665Z,10.54
2023-03-08T10:40:34.555Z,10.62
2023-03-08T10:41:46.024Z,10.71
2023-03-08T10:43:01.386Z,10.81
2023-03-08T10:44:04.281Z,10.95
2023-03-08T10:45:17.341Z,11.09
2023-03-08T10:46:24.027Z,11.26
2023-03-08T10:47:28.357Z,11.37
2023-03-08T10:48:30.381Z,11.45
2023-03-08T10:49:32.263Z,11.51
2023-03-08T10:50:38.441Z,11.56
2023-03-08T10:51:40.334Z,11.59
2023-03-08T10:52:42.873Z,11.62
2023-03-08T10:54:02.934Z,11.69
2023-03-08T10:55:11.885Z,11.71
2023-03-08T10:56:23.459Z,11.69
2023-03-08T10:57:26.451Z,11.66
2023-03-08T10:58:31.781Z,11.69
2023-03-08T10:59:34.684Z,11.70
2023-03-08T11:00:52.382Z,11.68
2023-03-08T11:01:56.275Z,11.68
2023-03-08T11:03:18.515Z,11.74
2023-03-08T11:04:21.869Z,11.77
2023-03-08T11:05:26.812Z,11.80
2023-03-08T11:06:29.425Z,11.82
2023-03-08T11:07:32.767Z,11.85
2023-03-08T11:08:36.234Z,11.84
2023-03-08T11:09:38.103Z,11.82
2023-03-08T11:10:39.975Z,11.84
2023-03-08T11:11:43.115Z,11.90
2023-03-08T11:12:45.866Z,11.96
2023-03-08T11:13:48.972Z,12.01
2023-03-08T11:14:51.640Z,12.06
2023-03-08T11:16:07.049Z,12.07
2023-03-08T11:17:18.149Z,12.11
2023-03-08T11:18:28.607Z,12.33
2023-03-08T11:19:49.643Z,12.52
2023-03-08T11:20:59.793Z,12.77
2023-03-08T11:22:20.451Z,12.87
2023-03-08T11:23:27.218Z,12.98
2023-03-08T11:24:32.457Z,13.08
2023-03-08T11:25:37.496Z,13.17
2023-03-08T11:26:45.020Z,13.35
2023-03-08T11:27:46.881Z,13.48
2023-03-08T11:28:48.721Z,13.47
2023-03-08T11:30:11.696Z,13.51
2023-03-08T11:31:27.653Z,13.58
2023-03-08T11:32:35.572Z,13.74
2023-03-08T11:33:56.574Z,13.82
2023-03-08T11:34:58.522Z,13.82
2023-03-08T11:36:05.998Z,13.82
2023-03-08T11:37:22.921Z,13.76
2023-03-08T11:38:25.998Z,13.70
2023-03-08T11:39:33.730Z,13.63
2023-03-08T11:40:54.272Z,13.56
2023-03-08T11:42:05.474Z,13.53
2023-03-08T11:43:07.411Z,13.69
2023-03-08T11:44:21.440Z,13.83
2023-03-08T11:45:27.250Z,13.96
2023-03-08T11:46:54.085Z,13.89
2023-03-08T11:48:08.822Z,13.82
2023-03-08T11:49:23.549Z,13.91
2023-03-08T11:50:38.371Z,14.06
2023-03-08T11:51:54.269Z,14.21
2023-03-08T11:53:14.818Z,14.42
2023-03-08T11:54:17.016Z,14.61
2023-03-08T11:55:28.089Z,14.78
2023-03-08T11:56:37.277Z,14.92
2023-03-08T11:57:40.956Z,15.04
2023-03-08T11:58:49.186Z,14.92
2023-03-08T12:00:01.472Z,14.78
2023-03-08T12:01:07.277Z,14.63
2023-03-08T12:02:10.613Z,14.59
2023-03-08T12:03:15.310Z,14.60
2023-03-08T12:04:25.455Z,14.60
2023-03-08T12:05:29.921Z,14.54
2023-03-08T12:06:35.972Z,14.41
2023-03-08T12:07:40.265Z,14.40
2023-03-08T12:08:54.412Z,14.41
2023-03-08T12:10:01.224Z,14.41
2023-03-08T12:11:10.237Z,14.46
2023-03-08T12:12:20.177Z,14.45
2023-03-08T12:13:42.346Z,14.44
2023-03-08T12:14:55.577Z,14.50
2023-03-08T12:16:07.581Z,14.41
2023-03-08T12:17:20.584Z,14.40
2023-03-08T12:18:32.779Z,14.37
2023-03-08T12:19:41.137Z,14.41
2023-03-08T12:20:43.811Z,14.44
2023-03-08T12:22:02.379Z,14.48
2023-03-08T12:23:07.178Z,14.58
2023-03-08T12:24:12.284Z,14.62
2023-03-08T12:25:26.933Z,14.53
2023-03-08T12:26:33.604Z,14.48
2023-03-08T12:27:41.904Z,14.49
2023-03-08T12:28:47.298Z,14.46
2023-03-08T12:29:56.744Z,14.35
2023-03-08T12:31:04.059Z,14.24
2023-03-08T12:32:06.814Z,14.22
2023-03-08T12:33:11.545Z,14.18
2023-03-08T12:34:33.658Z,14.18
2023-03-08T12:35:36.994Z,14.22
2023-03-08T12:36:41.585Z,14.23
2023-03-08T12:37:43.630Z,14.26
2023-03-08T12:38:47.026Z,14.27
2023-03-08T12:40:01.271Z,14.32
2023-03-08T12:41:07.420Z,14.31
2023-03-08T12:42:12.266Z,14.33
2023-03-08T12:43:34.368Z,14.33
2023-03-08T12:44:36.319Z,14.36
2023-03-08T12:45:39.344Z,14.35
2023-03-08T12:47:02.363Z,14.30
2023-03-08T12:48:05.396Z,14.28
2023-03-08T12:49:18.787Z,14.30
2023-03-08T12:50:20.698Z,14.30
2023-03-08T12:51:33.336Z,14.26
2023-03-08T12:52:35.838Z,14.26
2023-03-08T12:53:37.780Z,14.26
2023-03-08T12:54:39.837Z,14.29
2023-03-08T12:55:42.056Z,14.35
2023-03-08T12:56:51.688Z,14.38
2023-03-08T12:57:55.086Z,14.41
2023-03-08T12:58:56.978Z,14.41
2023-03-08T13:00:00.927Z,14.42
2023-03-08T13:01:07.538Z,14.44
2023-03-08T13:02:27.704Z,14.44
2023-03-08T13:03:37.413Z,14.46
2023-03-08T13:04:42.404Z,14.47
2023-03-08T13:05:47.641Z,14.46
2023-03-08T13:07:09.163Z,14.44
2023-03-08T13:08:14.085Z,14.44
2023-03-08T13:09:25.060Z,14.45
2023-03-08T13:10:30.511Z,14.45
2023-03-08T13:11:40.207Z,14.44
2023-03-08T13:13:00.154Z,14.40
2023-03-08T13:14:02.931Z,14.34
2023-03-08T13:15:22.389Z,14.27
2023-03-08T13:16:37.764Z,14.18
2023-03-08T13:17:49.020Z,14.11
2023-03-08T13:19:01.590Z,14.08
2023-03-08T13:20:21.726Z,14.05
2023-03-08T13:21:28.193Z,13.98
2023-03-08T13:22:50.375Z,13.95
2023-03-08T13:23:57.841Z,13.94
2023-03-08T13:25:07.160Z,13.93
2023-03-08T13:26:11.894Z,13.89
2023-03-08T13:27:22.298Z,13.84
2023-03-08T13:28:37.601Z,13.78
2023-03-08T13:29:47.378Z,13.79
2023-03-08T13:30:54.254Z,13.81
2023-03-08T13:31:56.568Z,13.80
2023-03-08T13:32:59.354Z,13.81
2023-03-08T13:34:01.179Z,13.78
2023-03-08T13:35:04.763Z,13.76
2023-03-08T13:36:14.959Z,13.74
2023-03-08T13:37:22.959Z,13.69
2023-03-08T13:38:26.170Z,13.59
2023-03-08T13:39:30.370Z,13.47
2023-03-08T13:40:32.406Z,13.42
2023-03-08T13:41:35.460Z,13.38
2023-03-08T13:42:37.276Z,13.33
2023-03-08T13:43:39.196Z,13.33
2023-03-08T13:44:41.062Z,13.34
2023-03-08T13:45:46.950Z,13.29
2023-03-08T13:46:50.145Z,13.24
2023-03-08T13:47:52.771Z,13.22
2023-03-08T13:48:54.694Z,13.13
2023-03-08T13:49:57.559Z,13.01
2023-03-08T13:51:00.124Z,12.94
2023-03-08T13:52:14.218Z,12.89
2023-03-08T13:53:18.818Z,12.84
2023-03-08T13:54:29.613Z,12.83
2023-03-08T13:55:35.645Z,12.84
2023-03-08T13:56:37.560Z,12.81
2023-03-08T13:57:42.547Z,12.76
2023-03-08T13:58:48.033Z,12.72
2023-03-08T13:59:51.280Z,12.73
2023-03-08T14:01:02.231Z,12.69
2023-03-08T14:02:16.664Z,12.69
2023-03-08T14:03:19.683Z,12.66
2023-03-08T14:04:26.704Z,12.64
2023-03-08T14:05:31.011Z,12.60
2023-03-08T14:06:38.302Z,12.59
2023-03-08T14:07:40.168Z,12.57
2023-03-08T14:08:42.100Z,12.56